Time;durP1;ratioP1;P1;durP2;ratioP2;P2;SDS_P1;SDS_P2;PMS_P1;PMS_P2;Temp;Humidity;BMP_temperature;BMP_pressure;BME280_temperature;BME280_humidity;BME280_pressure;Samples;Min_cycle;Max_cycle;Signal;HPM_P1;HPM_P2
2022/06/15 00:02:04;;;;;;;7.53;5.97;;;16.30;99.90;;;;;;5019368;28;20045;-86
2022/06/15 00:04:31;;;;;;;7.30;5.18;;;16.20;99.90;;;;;;5001745;28;20053;-86
2022/06/15 00:07:03;;;;;;;6.13;4.97;;;16.20;99.90;;;;;;4999269;28;20525;-85
2022/06/15 00:09:35;;;;;;;6.07;4.72;;;16.20;99.90;;;;;;4995190;28;20056;-86
2022/06/15 00:12:08;;;;;;;5.72;4.20;;;16.20;99.90;;;;;;4994453;28;20531;-86
2022/06/15 00:14:40;;;;;;;6.43;4.50;;;16.10;99.90;;;;;;5001594;28;20046;-86
2022/06/15 00:17:12;;;;;;;6.78;3.75;;;16.00;99.90;;;;;;4999809;28;20061;-86
2022/06/15 00:19:38;;;;;;;4.63;3.65;;;15.90;99.90;;;;;;5000992;28;20397;-86
2022/06/15 00:22:11;;;;;;;6.32;3.88;;;15.90;99.90;;;;;;5002066;28;20060;-85
2022/06/15 00:24:43;;;;;;;7.53;5.78;;;15.80;99.90;;;;;;5001781;28;20042;-86
2022/06/15 00:27:10;;;;;;;5.90;5.30;;;15.80;99.90;;;;;;5001520;28;20084;-87
2022/06/15 00:29:39;;;;;;;8.38;5.43;;;15.80;99.90;;;;;;5002548;28;20046;-86
2022/06/15 00:32:11;;;;;;;7.47;5.15;;;15.80;99.90;;;;;;5002280;28;20042;-86
2022/06/15 00:34:45;;;;;;;7.30;5.45;;;15.70;99.90;;;;;;5001439;28;20073;-86
2022/06/15 00:37:11;;;;;;;9.90;5.10;;;15.60;99.90;;;;;;5001892;28;20564;-86
2022/06/15 00:39:43;;;;;;;6.43;5.38;;;15.60;99.90;;;;;;5002336;28;20517;-86
2022/06/15 00:42:15;;;;;;;7.82;5.65;;;15.50;99.90;;;;;;4991458;28;20046;-86
2022/06/15 00:44:49;;;;;;;9.52;5.50;;;15.50;99.90;;;;;;4985505;28;20057;-86
2022/06/15 00:47:22;;;;;;;;;;;15.40;99.90;;;;;;5012089;28;20088;-86
2022/06/15 00:50:05;;;;;;;7.20;5.22;;;15.40;99.90;;;;;;5017687;28;19928;-86
2022/06/15 00:52:45;;;;;;;6.95;5.30;;;15.30;99.90;;;;;;4994840;28;20048;-86
2022/06/15 00:55:25;;;;;;;6.57;5.63;;;15.20;99.90;;;;;;4994566;28;20046;-86
2022/06/15 00:57:52;;;;;;;6.30;5.70;;;15.10;99.90;;;;;;5002091;28;20041;-86
2022/06/15 01:00:26;;;;;;;6.70;4.73;;;15.00;99.90;;;;;;5019800;28;20069;-86
2022/06/15 01:02:58;;;;;;;6.30;4.75;;;14.80;99.90;;;;;;5002800;28;20320;-86
2022/06/15 01:05:42;;;;;;;5.60;4.97;;;14.70;99.90;;;;;;5001881;28;20046;-86
2022/06/15 01:08:39;;;;;;;5.35;4.53;;;14.70;99.90;;;;;;4999585;28;20054;-86
2022/06/15 01:11:21;;;;;;;6.90;5.38;;;14.70;99.90;;;;;;5014836;28;20072;-86
2022/06/15 01:13:54;;;;;;;7.43;5.13;;;14.70;99.90;;;;;;4986110;28;20049;-87
2022/06/15 01:16:48;;;;;;;8.00;5.35;;;14.80;99.90;;;;;;4996482;28;20042;-86
2022/06/15 01:19:32;;;;;;;6.63;5.10;;;14.70;99.90;;;;;;4987768;28;20052;-86
2022/06/15 01:22:11;;;;;;;6.05;5.05;;;14.60;99.90;;;;;;5019243;28;20054;-86
2022/06/15 01:25:11;;;;;;;7.80;4.88;;;14.50;99.90;;;;;;5001830;28;20069;-86
2022/06/15 01:28:18;;;;;;;6.22;5.63;;;14.40;99.90;;;;;;5000845;28;20129;-86
2022/06/15 01:31:20;;;;;;;7.00;5.50;;;14.40;99.90;;;;;;4996018;28;20081;-86
2022/06/15 01:33:51;;;;;;;6.47;5.72;;;14.40;99.90;;;;;;5008861;28;20081;-86
2022/06/15 01:36:30;;;;;;;7.05;5.45;;;14.40;99.90;;;;;;5002186;28;20120;-86
2022/06/15 01:39:18;;;;;;;8.02;5.53;;;14.40;99.90;;;;;;5015994;28;20038;-85
2022/06/15 01:41:56;;;;;;;6.00;5.40;;;14.30;99.90;;;;;;5003388;28;20114;-86
2022/06/15 01:44:26;;;;;;;6.13;5.50;;;14.30;99.90;;;;;;5001480;28;20068;-86
2022/06/15 01:47:02;;;;;;;8.48;5.75;;;14.20;99.90;;;;;;4998899;28;20058;-86
2022/06/15 01:49:35;;;;;;;7.32;5.40;;;14.20;99.90;;;;;;5000316;28;20050;-86
2022/06/15 01:52:12;;;;;;;6.20;5.60;;;14.10;99.90;;;;;;5003171;28;20081;-86
2022/06/15 01:54:49;;;;;;;6.05;5.30;;;14.00;99.90;;;;;;5001102;28;20536;-86
2022/06/15 01:57:18;;;;;;;8.73;5.25;;;13.90;99.90;;;;;;4997738;28;20049;-86
2022/06/15 02:00:05;;;;;;;5.60;4.57;;;13.90;99.90;;;;;;5003184;28;20480;-86
2022/06/15 02:02:51;;;;;;;9.38;5.68;;;13.90;99.90;;;;;;5018778;28;20069;-86
2022/06/15 02:05:29;;;;;;;8.10;5.18;;;13.90;99.90;;;;;;5002280;28;20106;-86
2022/06/15 02:08:15;;;;;;;6.72;4.90;;;13.80;99.90;;;;;;4997642;28;20045;-86
2022/06/15 02:10:56;;;;;;;6.00;4.68;;;13.80;99.90;;;;;;5016816;28;20069;-85
2022/06/15 02:13:42;;;;;;;9.65;5.05;;;13.70;99.90;;;;;;5001721;28;20050;-86
2022/06/15 02:16:35;;;;;;;6.35;4.53;;;13.70;99.90;;;;;;5006288;28;20093;-86
2022/06/15 02:19:11;;;;;;;6.50;4.90;;;13.70;99.90;;;;;;5017175;28;20070;-86
2022/06/15 02:21:40;;;;;;;8.13;5.15;;;13.60;99.90;;;;;;5006039;28;20563;-86
2022/06/15 02:24:09;;;;;;;8.55;4.60;;;13.50;99.90;;;;;;5006358;28;20218;-86
2022/06/15 02:26:38;;;;;;;7.10;4.75;;;13.50;99.90;;;;;;5005690;28;20053;-86
2022/06/15 02:29:15;;;;;;;5.55;3.97;;;13.50;99.90;;;;;;5022277;28;20068;-86
2022/06/15 02:31:53;;;;;;;6.65;4.15;;;13.40;99.90;;;;;;4991738;28;20056;-86
2022/06/15 02:34:20;;;;;;;6.18;4.30;;;13.40;99.90;;;;;;5005493;28;20410;-86
2022/06/15 02:36:53;;;;;;;5.93;4.65;;;13.30;99.90;;;;;;5003453;28;20034;-86
2022/06/15 02:39:26;;;;;;;6.60;4.05;;;13.40;99.90;;;;;;5005523;28;20065;-86
2022/06/15 02:42:01;;;;;;;8.23;4.40;;;13.40;99.90;;;;;;5006479;28;20096;-86
2022/06/15 02:44:35;;;;;;;7.20;4.38;;;13.40;99.90;;;;;;5004721;28;20053;-86
2022/06/15 02:47:07;;;;;;;6.65;4.00;;;13.30;99.90;;;;;;5006326;28;20130;-87
2022/06/15 02:49:39;;;;;;;6.75;4.40;;;13.30;99.90;;;;;;5006004;28;20041;-86
2022/06/15 02:52:07;;;;;;;8.43;4.80;;;13.30;99.90;;;;;;5003340;28;20069;-86
2022/06/15 02:54:41;;;;;;;6.28;4.57;;;13.30;99.90;;;;;;5004766;28;20041;-86
2022/06/15 02:57:17;;;;;;;8.77;5.65;;;13.20;99.90;;;;;;5004682;28;20038;-86
2022/06/15 02:59:45;;;;;;;7.40;4.25;;;13.30;99.90;;;;;;5019740;28;20477;-86
2022/06/15 03:02:14;;;;;;;5.32;3.88;;;13.30;99.90;;;;;;5006472;28;20046;-86
2022/06/15 03:04:50;;;;;;;6.32;4.15;;;13.30;99.90;;;;;;5005235;28;20096;-86
2022/06/15 03:07:23;;;;;;;7.63;3.97;;;13.30;99.90;;;;;;4989225;28;20141;-86
2022/06/15 03:09:51;;;;;;;5.90;4.55;;;13.30;99.90;;;;;;5006976;28;20042;-87
2022/06/15 03:12:23;;;;;;;6.53;4.55;;;13.40;99.90;;;;;;5005512;28;20042;-86
2022/06/15 03:14:51;;;;;;;5.38;4.32;;;13.30;99.90;;;;;;5004147;28;20505;-86
2022/06/15 03:17:20;;;;;;;5.00;3.85;;;13.20;99.90;;;;;;4989890;28;20160;-87
2022/06/15 03:19:55;;;;;;;11.20;4.60;;;13.20;99.90;;;;;;5001433;28;20046;-86
2022/06/15 03:22:22;;;;;;;4.97;3.97;;;13.20;99.90;;;;;;4983608;28;20046;-86
2022/06/15 03:24:57;;;;;;;7.32;4.35;;;13.30;99.90;;;;;;4989793;28;20093;-86
2022/06/15 03:27:24;;;;;;;5.50;4.30;;;13.30;99.90;;;;;;4988516;28;20505;-86
2022/06/15 03:29:53;;;;;;;5.63;4.32;;;13.30;99.90;;;;;;5003413;28;20038;-86
2022/06/15 03:32:23;;;;;;;4.72;3.85;;;13.30;99.90;;;;;;5005734;28;20042;-86
2022/06/15 03:34:55;;;;;;;9.43;4.72;;;13.40;99.90;;;;;;4989431;28;20816;-87
2022/06/15 03:37:23;;;;;;;5.25;4.03;;;13.30;99.90;;;;;;5005370;28;20420;-86
2022/06/15 03:39:55;;;;;;;6.63;4.32;;;13.30;99.90;;;;;;5006075;28;20049;-86
2022/06/15 03:42:31;;;;;;;6.43;4.57;;;13.30;99.90;;;;;;4996973;28;20038;-86
2022/06/15 03:44:58;;;;;;;5.55;4.55;;;13.20;99.90;;;;;;5003931;28;20046;-86
2022/06/15 03:47:33;;;;;;;8.02;4.78;;;13.30;99.90;;;;;;5005979;28;20049;-86
2022/06/15 03:50:00;;;;;;;8.15;4.85;;;13.30;99.90;;;;;;5005822;28;20050;-86
2022/06/15 03:52:33;;;;;;;7.37;4.43;;;13.30;99.90;;;;;;5005769;28;20061;-86
2022/06/15 03:54:59;;;;;;;5.70;4.32;;;13.30;99.90;;;;;;5003920;28;20034;-86
2022/06/15 03:57:32;;;;;;;5.93;4.47;;;13.40;99.90;;;;;;5005306;28;20042;-87
2022/06/15 04:00:02;;;;;;;5.03;4.50;;;13.40;99.90;;;;;;5005857;28;20053;-85
2022/06/15 04:02:49;;;;;;;9.00;5.00;;;13.50;99.90;;;;;;5005937;28;20056;-86
2022/06/15 04:05:52;;;;;;;6.57;4.85;;;13.50;99.90;;;;;;5005173;28;20057;-86
2022/06/15 04:08:35;;;;;;;8.85;4.88;;;13.50;99.90;;;;;;4999880;28;20042;-86
2022/06/15 04:11:08;;;;;;;;;;;13.50;99.90;;;;;;5006200;28;20068;-86
2022/06/15 04:13:40;;;;;;;5.72;4.45;;;13.60;99.90;;;;;;5001033;28;19922;-87
2022/06/15 04:16:10;;;;;;;9.32;4.72;;;13.70;99.90;;;;;;4983844;28;20069;-86
2022/06/15 04:18:37;;;;;;;9.35;6.22;;;13.80;99.90;;;;;;5001980;28;20145;-86
2022/06/15 04:21:08;;;;;;;13.82;5.07;;;13.80;99.90;;;;;;4993252;28;20043;-86
2022/06/15 04:23:42;;;;;;;8.80;5.30;;;13.90;99.90;;;;;;4989478;28;20103;-86
2022/06/15 04:26:10;;;;;;;7.38;4.60;;;13.90;99.90;;;;;;5004329;28;20054;-86
2022/06/15 04:28:46;;;;;;;12.15;5.30;;;13.90;99.90;;;;;;5000409;28;20077;-86
2022/06/15 04:31:22;;;;;;;7.85;5.47;;;14.00;99.90;;;;;;5004576;28;20100;-86
2022/06/15 04:33:50;;;;;;;9.07;6.05;;;14.00;99.90;;;;;;5003913;28;20531;-86
2022/06/15 04:36:17;;;;;;;7.75;6.28;;;14.00;99.90;;;;;;4987999;28;20060;-86
2022/06/15 04:38:49;;;;;;;7.25;5.72;;;14.10;99.90;;;;;;4997383;28;20069;-86
2022/06/15 04:41:15;;;;;;;10.00;7.05;;;14.10;99.90;;;;;;4987892;28;20068;-87
2022/06/15 04:43:47;;;;;;;39.78;24.50;;;14.10;99.90;;;;;;5004272;28;20061;-86
2022/06/15 04:46:16;;;;;;;23.52;15.70;;;14.10;99.90;;;;;;4999366;28;20100;-86
2022/06/15 04:48:45;;;;;;;17.60;10.52;;;14.10;99.90;;;;;;5002336;28;20096;-86
2022/06/15 04:51:21;;;;;;;11.65;7.13;;;14.10;99.90;;;;;;5004030;28;20424;-86
2022/06/15 04:53:56;;;;;;;10.00;5.10;;;14.10;99.90;;;;;;5000277;28;20457;-87
2022/06/15 04:56:24;;;;;;;10.05;5.40;;;14.10;99.90;;;;;;4987028;28;20401;-86
2022/06/15 04:59:04;;;;;;;22.17;8.50;;;14.00;99.90;;;;;;4984510;28;20045;-86
2022/06/15 05:01:37;;;;;;;17.25;10.20;;;14.00;99.90;;;;;;4997512;28;20044;-86
2022/06/15 05:04:05;;;;;;;15.82;8.45;;;14.00;99.90;;;;;;4996725;28;20433;-85
2022/06/15 05:06:38;;;;;;;15.70;9.43;;;14.00;99.90;;;;;;5002317;28;20501;-86
2022/06/15 05:09:13;;;;;;;23.50;9.82;;;14.10;99.90;;;;;;5004911;28;20050;-86
2022/06/15 05:11:42;;;;;;;11.75;8.15;;;14.10;99.90;;;;;;5004193;28;20054;-86
2022/06/15 05:14:12;;;;;;;19.63;9.90;;;14.10;99.90;;;;;;5003210;28;20046;-86
2022/06/15 05:16:46;;;;;;;13.65;8.15;;;14.10;99.90;;;;;;5012862;28;20042;-87
2022/06/15 05:19:17;;;;;;;16.08;9.80;;;14.20;99.90;;;;;;5004026;28;20050;-86
2022/06/15 05:21:46;;;;;;;16.88;9.57;;;14.20;99.90;;;;;;5003910;28;20453;-86
2022/06/15 05:24:16;;;;;;;12.07;8.75;;;14.20;99.90;;;;;;5003834;28;20540;-86
2022/06/15 05:26:51;;;;;;;9.70;8.18;;;14.20;99.90;;;;;;5002109;28;20537;-86
2022/06/15 05:29:23;;;;;;;12.40;9.90;;;14.20;99.90;;;;;;4980932;28;20058;-86
2022/06/15 05:31:57;;;;;;;16.70;12.30;;;14.30;99.90;;;;;;4986827;28;20056;-86
2022/06/15 05:34:29;;;;;;;11.60;10.35;;;14.30;99.90;;;;;;5018395;28;20041;-86
2022/06/15 05:36:56;;;;;;;14.30;10.32;;;14.30;99.90;;;;;;5001974;28;20051;-85
2022/06/15 05:39:32;;;;;;;14.80;10.02;;;14.40;99.90;;;;;;5000662;28;20064;-86
2022/06/15 05:41:59;;;;;;;10.98;8.90;;;14.40;99.90;;;;;;4995595;28;20046;-86
2022/06/15 05:47:11;;;;;;;8.07;7.20;;;14.60;99.90;;;;;;5008229;28;20069;-86
2022/06/15 05:50:09;;;;;;;13.55;8.63;;;14.70;99.90;;;;;;5007388;28;20049;-86
2022/06/15 05:52:51;;;;;;;13.07;8.48;;;14.80;99.90;;;;;;5002647;28;20046;-86
2022/06/15 05:55:48;;;;;;;13.18;8.43;;;14.80;99.90;;;;;;5006078;28;20048;-86
2022/06/15 05:58:15;;;;;;;8.93;7.80;;;14.90;99.90;;;;;;5023674;28;20088;-86
2022/06/15 06:00:42;;;;;;;11.00;7.97;;;15.00;99.90;;;;;;5006823;28;20073;-86
2022/06/15 06:03:09;;;;;;;12.88;8.68;;;15.00;99.90;;;;;;5002956;28;20520;-85
2022/06/15 06:05:35;;;;;;;11.05;7.68;;;15.10;99.90;;;;;;5004342;28;20049;-86
2022/06/15 06:08:02;;;;;;;10.23;7.47;;;15.20;99.90;;;;;;4989884;28;20042;-86
2022/06/15 06:10:34;;;;;;;8.35;7.50;;;15.30;99.90;;;;;;5006500;28;20045;-86
2022/06/15 06:13:06;;;;;;;11.30;7.68;;;15.30;99.90;;;;;;5005752;28;20056;-86
2022/06/15 06:15:38;;;;;;;11.20;7.70;;;15.40;99.90;;;;;;4998760;28;20060;-86
2022/06/15 06:18:05;;;;;;;9.93;8.20;;;15.50;99.90;;;;;;5005730;28;20046;-86
2022/06/15 06:20:37;;;;;;;8.98;8.07;;;15.50;99.90;;;;;;5004537;28;20076;-86
2022/06/15 06:23:03;;;;;;;10.57;9.27;;;15.60;99.90;;;;;;4999325;28;20041;-85
2022/06/15 06:25:30;;;;;;;11.70;8.70;;;15.70;99.90;;;;;;4984742;28;20052;-86
2022/06/15 06:27:57;;;;;;;9.35;8.35;;;15.80;99.90;;;;;;5004773;28;20129;-84
2022/06/15 06:30:29;;;;;;;9.63;8.43;;;15.90;99.90;;;;;;5005130;28;20053;-86
2022/06/15 06:32:55;;;;;;;9.68;7.88;;;16.00;99.90;;;;;;5005222;28;20113;-85
2022/06/15 06:35:27;;;;;;;10.63;7.90;;;16.10;99.90;;;;;;5004134;28;20061;-86
2022/06/15 06:37:55;;;;;;;13.35;8.18;;;16.20;99.90;;;;;;4988647;28;20042;-86
2022/06/15 06:40:21;;;;;;;10.63;8.32;;;16.30;99.90;;;;;;5005477;28;20109;-86
2022/06/15 06:42:53;;;;;;;10.85;7.70;;;16.40;99.90;;;;;;5002063;28;20042;-85
2022/06/15 06:45:25;;;;;;;12.02;6.78;;;16.50;99.90;;;;;;5004242;28;20483;-86
2022/06/15 06:47:59;;;;;;;9.75;6.95;;;16.60;99.90;;;;;;5004934;28;20070;-86
2022/06/15 06:50:26;;;;;;;12.23;6.75;;;16.70;99.90;;;;;;5005138;28;20073;-86
2022/06/15 06:52:58;;;;;;;13.90;7.68;;;16.80;99.90;;;;;;5004549;28;20049;-86
2022/06/15 06:55:28;;;;;;;8.73;6.72;;;16.90;99.90;;;;;;5002892;28;20048;-86
2022/06/15 06:57:56;;;;;;;10.38;7.38;;;17.10;99.90;;;;;;5013622;28;20125;-86
2022/06/15 07:00:29;;;;;;;;;;;17.20;99.90;;;;;;5004960;28;20060;-86
2022/06/15 07:03:02;;;;;;;11.60;6.00;;;17.30;99.90;;;;;;5004454;28;20023;-86
2022/06/15 07:05:35;;;;;;;8.63;5.95;;;17.40;99.90;;;;;;5003707;28;20042;-86
2022/06/15 07:08:12;;;;;;;9.30;5.80;;;17.50;99.90;;;;;;5005022;28;20048;-86
2022/06/15 07:10:43;;;;;;;8.13;6.15;;;17.60;99.90;;;;;;5018858;28;20096;-87
2022/06/15 07:13:10;;;;;;;10.05;6.40;;;17.70;99.90;;;;;;5004691;28;20042;-86
2022/06/15 07:15:39;;;;;;;8.73;6.25;;;17.80;99.90;;;;;;5003289;28;20482;-86
2022/06/15 07:18:06;;;;;;;8.50;5.88;;;17.90;99.90;;;;;;5003671;28;20061;-86
2022/06/15 07:20:33;;;;;;;9.05;6.40;;;18.10;99.90;;;;;;5000847;28;20080;-86
2022/06/15 07:23:05;;;;;;;7.47;6.07;;;18.20;99.90;;;;;;4999207;28;20038;-86
2022/06/15 07:25:32;;;;;;;8.40;5.68;;;18.30;99.90;;;;;;5002368;28;20076;-86
2022/06/15 07:28:04;;;;;;;7.85;5.38;;;18.40;99.90;;;;;;5003142;28;20141;-86
2022/06/15 07:30:36;;;;;;;7.07;5.38;;;18.50;99.90;;;;;;5003407;28;20424;-86
2022/06/15 07:33:08;;;;;;;7.63;5.73;;;18.70;99.90;;;;;;5002907;28;20042;-86
2022/06/15 07:35:41;;;;;;;7.68;5.50;;;18.80;99.90;;;;;;4986358;28;20048;-85
2022/06/15 07:38:08;;;;;;;6.70;5.55;;;18.90;99.90;;;;;;4986342;28;20129;-87
2022/06/15 07:40:34;;;;;;;6.93;6.10;;;18.90;99.90;;;;;;4987763;28;20128;-86
2022/06/15 07:43:01;;;;;;;6.68;5.13;;;19.00;99.90;;;;;;4985350;28;20057;-86
2022/06/15 07:45:28;;;;;;;9.20;5.80;;;19.10;99.90;;;;;;4989826;28;20489;-86
2022/06/15 07:50:50;;;;;;;7.70;5.93;;;19.40;99.90;;;;;;5002182;28;20052;-87
2022/06/15 07:53:17;;;;;;;7.75;5.20;;;19.50;99.90;;;;;;5001907;28;20108;-86
2022/06/15 07:55:46;;;;;;;10.93;5.47;;;19.70;99.90;;;;;;5002359;28;20052;-86
2022/06/15 07:58:15;;;;;;;5.97;5.07;;;19.80;99.90;;;;;;5003224;28;20042;-86
2022/06/15 08:00:46;;;;;;;6.65;5.10;;;20.00;99.90;;;;;;5002835;28;20046;-87
2022/06/15 08:03:18;;;;;;;6.03;4.68;;;20.10;99.90;;;;;;4999849;28;20056;-87
2022/06/15 08:05:50;;;;;;;7.53;5.07;;;20.30;99.90;;;;;;5001106;28;20038;-87
2022/06/15 08:08:25;;;;;;;6.82;5.00;;;20.30;99.90;;;;;;5002712;28;20052;-87
2022/06/15 08:10:56;;;;;;;5.25;4.50;;;20.40;99.90;;;;;;5000974;28;20073;-87
2022/06/15 08:13:29;;;;;;;6.30;4.15;;;20.60;99.90;;;;;;4994862;28;20112;-87
2022/06/15 08:15:57;;;;;;;6.80;4.30;;;20.70;99.90;;;;;;5002098;28;20106;-86
2022/06/15 08:18:27;;;;;;;7.85;4.78;;;20.80;99.90;;;;;;5003360;28;20038;-86
2022/06/15 08:20:59;;;;;;;5.72;4.70;;;20.90;99.90;;;;;;5017457;28;20052;-86
2022/06/15 08:23:34;;;;;;;8.95;4.32;;;21.10;99.90;;;;;;5001864;28;20038;-86
2022/06/15 08:26:14;;;;;;;8.07;4.40;;;21.20;99.90;;;;;;4978861;28;20042;-86
2022/06/15 08:28:50;;;;;;;6.22;4.07;;;21.30;99.90;;;;;;5001798;28;20045;-87
2022/06/15 08:31:17;;;;;;;4.80;4.10;;;21.40;99.90;;;;;;5018556;28;20571;-86
2022/06/15 08:33:49;;;;;;;5.38;4.70;;;21.50;99.90;;;;;;5003561;28;20464;-86
2022/06/15 08:36:21;;;;;;;8.27;4.93;;;21.60;99.90;;;;;;4982453;28;20045;-86
2022/06/15 08:38:48;;;;;;;4.40;4.00;;;21.80;99.90;;;;;;4998224;28;20442;-86
2022/06/15 08:41:35;;;;;;;5.22;4.53;;;21.90;99.90;;;;;;5019247;28;20042;-87
2022/06/15 08:44:07;;;;;;;5.82;4.35;;;22.00;99.90;;;;;;5003710;28;20056;-86
2022/06/15 08:46:45;;;;;;;5.28;4.18;;;22.00;99.90;;;;;;5002354;28;20385;-86
2022/06/15 08:49:32;;;;;;;7.68;4.53;;;22.20;99.90;;;;;;5001722;28;20046;-86
2022/06/15 08:52:10;;;;;;;6.10;4.50;;;22.30;99.90;;;;;;4999388;28;20149;-86
2022/06/15 08:55:02;;;;;;;5.30;4.68;;;22.50;99.90;;;;;;5017313;28;20120;-86
2022/06/15 08:58:02;;;;;;;6.80;4.50;;;22.60;99.90;;;;;;4994318;28;20053;-86
2022/06/15 09:00:34;;;;;;;7.60;4.85;;;22.70;99.90;;;;;;5014389;28;20121;-86
2022/06/15 09:03:39;;;;;;;5.40;4.90;;;22.80;99.90;;;;;;4999191;28;20049;-86
2022/06/15 09:06:30;;;;;;;7.80;4.65;;;23.00;99.90;;;;;;4999769;28;20046;-86
2022/06/15 09:09:15;;;;;;;6.55;4.80;;;23.10;99.90;;;;;;5001421;28;20045;-86
2022/06/15 09:15:35;;;;;;;5.65;4.80;;;23.20;99.90;;;;;;4999302;28;20069;-86
2022/06/15 09:18:21;;;;;;;6.63;4.43;;;23.30;99.90;;;;;;5004845;28;20045;-86
2022/06/15 09:21:25;;;;;;;6.78;3.88;;;23.40;99.90;;;;;;5004566;28;20038;-87
2022/06/15 09:23:54;;;;;;;4.88;4.35;;;23.60;99.90;;;;;;4994530;28;20052;-87
2022/06/15 09:26:31;;;;;;;8.05;4.97;;;23.80;99.90;;;;;;4987552;28;20116;-86
2022/06/15 09:29:35;;;;;;;4.88;4.30;;;23.90;99.90;;;;;;5005428;28;20106;-87
2022/06/15 09:32:14;;;;;;;;;;;24.00;99.90;;;;;;4974983;28;20419;-86
2022/06/15 09:34:42;;;;;;;;;;;24.10;99.90;;;;;;5013065;28;19929;-87
2022/06/15 09:37:15;;;;;;;8.10;4.53;;;24.10;99.90;;;;;;5006546;28;19928;-86
2022/06/15 09:39:43;;;;;;;6.15;4.95;;;24.10;99.90;;;;;;5020093;28;20085;-85
2022/06/15 09:42:22;;;;;;;;;;;24.20;99.90;;;;;;5004363;28;20579;-85
2022/06/15 09:44:49;;;;;;;7.38;4.90;;;24.30;99.90;;;;;;5004721;28;19925;-86
2022/06/15 09:47:32;;;;;;;4.85;4.32;;;24.40;99.90;;;;;;5006014;28;20504;-86
2022/06/15 09:50:35;;;;;;;5.63;4.40;;;24.50;99.90;;;;;;5005001;28;20049;-85
2022/06/15 09:53:26;;;;;;;7.47;4.45;;;24.60;99.90;;;;;;4987561;28;20053;-86
2022/06/15 09:55:56;;;;;;;4.25;3.80;;;24.60;99.90;;;;;;4971998;28;20080;-86
2022/06/15 09:58:33;;;;;;;3.92;3.53;;;24.70;99.90;;;;;;5005489;28;20038;-86
2022/06/15 10:01:08;;;;;;;5.57;4.38;;;24.80;99.90;;;;;;5003142;28;20037;-86
2022/06/15 10:03:38;;;;;;;8.70;4.22;;;24.90;99.90;;;;;;4985316;28;20123;-86
2022/06/15 10:06:16;;;;;;;5.13;4.03;;;25.10;99.90;;;;;;5017250;28;20115;-86
2022/06/15 10:08:43;;;;;;;5.70;3.65;;;25.20;99.90;;;;;;5003470;28;20069;-86
2022/06/15 10:11:22;;;;;;;6.85;3.58;;;25.30;99.90;;;;;;5005382;28;20046;-86
2022/06/15 10:13:54;;;;;;;4.03;3.63;;;25.50;99.40;;;;;;5004485;28;20513;-86
2022/06/15 10:16:31;;;;;;;4.93;3.13;;;25.60;98.80;;;;;;5015977;28;20077;-87
2022/06/15 10:19:10;;;;;;;5.38;3.65;;;25.60;98.00;;;;;;5017996;28;20045;-86
2022/06/15 10:21:42;;;;;;;6.78;3.88;;;25.70;97.50;;;;;;5002447;28;20046;-86
2022/06/15 10:24:31;;;;;;;6.38;3.28;;;25.80;97.10;;;;;;4988919;28;20044;-86
2022/06/15 10:27:36;;;;;;;4.20;3.40;;;25.70;95.20;;;;;;5020179;28;20073;-84
2022/06/15 10:30:20;;;;;;;5.00;3.33;;;25.80;96.40;;;;;;4996411;28;20510;-86
2022/06/15 10:33:17;;;;;;;5.07;3.08;;;25.80;95.50;;;;;;4987730;28;20145;-84
2022/06/15 10:35:58;;;;;;;6.07;3.38;;;25.90;94.20;;;;;;4986505;28;20064;-86
2022/06/15 10:38:37;;;;;;;4.03;3.05;;;26.00;95.10;;;;;;4999447;28;20044;-86
2022/06/15 10:43:50;;;;;;;7.15;3.78;;;26.30;93.50;;;;;;5015374;28;20129;-86
2022/06/15 10:46:17;;;;;;;3.45;3.15;;;26.40;95.00;;;;;;5002516;28;20049;-86
2022/06/15 10:48:51;;;;;;;8.13;3.90;;;26.50;94.00;;;;;;5002943;28;20056;-86
2022/06/15 10:51:37;;;;;;;5.13;3.47;;;26.70;93.60;;;;;;5000184;28;20050;-86
2022/06/15 11:02:06;;;;;;;4.50;3.20;;;26.70;93.60;;;;;;5002310;28;20069;-86
2022/06/15 11:03:25;;;;;;;6.03;3.47;;;26.90;93.30;;;;;;5001329;28;20057;-85
2022/06/15 11:05:58;;;;;;;5.38;3.15;;;27.00;93.20;;;;;;4997610;28;20049;-86
2022/06/15 11:08:33;;;;;;;7.43;3.53;;;27.20;94.00;;;;;;5003306;28;20041;-86
2022/06/15 11:11:20;;;;;;;5.05;3.47;;;27.40;94.70;;;;;;5018508;28;20052;-86
2022/06/15 11:14:04;;;;;;;3.03;2.72;;;27.50;92.40;;;;;;5014914;28;20053;-86
2022/06/15 11:19:29;;;;;;;5.35;3.00;;;27.20;86.90;;;;;;5014427;28;19956;-87
2022/06/15 11:22:17;;;;;;;4.85;2.97;;;27.30;87.20;;;;;;5000767;28;20038;-86
2022/06/15 11:24:56;;;;;;;3.58;2.85;;;27.50;89.70;;;;;;4998553;28;20054;-86
2022/06/15 11:27:46;;;;;;;3.90;3.03;;;27.60;88.80;;;;;;4988743;28;20069;-86
2022/06/15 11:30:35;;;;;;;3.60;3.10;;;27.60;87.00;;;;;;4999153;28;20050;-86
2022/06/15 11:33:19;;;;;;;5.60;3.00;;;27.70;89.10;;;;;;5003997;28;20121;-87
2022/06/15 11:36:14;;;;;;;5.55;3.00;;;27.60;90.20;;;;;;4996186;28;20038;-87
2022/06/15 11:38:52;;;;;;;4.13;3.60;;;27.70;90.60;;;;;;4996304;28;20125;-87
2022/06/15 11:41:39;;;;;;;5.80;3.95;;;27.70;89.10;;;;;;4995860;28;20140;-86
2022/06/15 11:44:36;;;;;;;5.53;3.40;;;27.80;88.30;;;;;;5014165;28;20497;-85
2022/06/15 11:47:21;;;;;;;4.40;3.28;;;27.90;88.70;;;;;;4983558;28;20405;-86
2022/06/15 11:50:12;;;;;;;5.15;3.78;;;28.00;85.80;;;;;;5010794;28;20038;-86
2022/06/15 11:53:12;;;;;;;4.72;3.75;;;28.00;87.00;;;;;;5000588;28;20038;-86
2022/06/15 11:55:52;;;;;;;5.95;3.30;;;28.20;85.30;;;;;;4962055;28;20042;-86
2022/06/15 11:58:34;;;;;;;3.58;3.13;;;28.20;82.90;;;;;;4993399;28;20038;-86
2022/06/15 12:01:31;;;;;;;4.87;3.10;;;28.20;82.50;;;;;;4998572;28;20039;-87
2022/06/15 12:04:25;;;;;;;3.63;2.90;;;28.20;81.50;;;;;;5005736;28;20070;-86
2022/06/15 12:06:58;;;;;;;3.55;2.95;;;28.30;83.50;;;;;;4999576;28;20046;-86
2022/06/15 12:09:54;;;;;;;6.72;3.00;;;28.30;83.30;;;;;;5000113;28;20126;-87
2022/06/15 12:12:53;;;;;;;3.50;2.97;;;28.30;81.90;;;;;;5017568;28;20042;-87
2022/06/15 12:16:03;;;;;;;4.28;3.03;;;28.30;82.50;;;;;;4999386;28;20513;-86
2022/06/15 12:18:54;;;;;;;4.55;3.58;;;28.40;82.90;;;;;;4920991;29;20048;-86
2022/06/15 12:21:37;;;;;;;5.43;3.78;;;28.60;81.60;;;;;;4998735;28;20046;-87
2022/06/15 12:24:26;;;;;;;4.18;2.88;;;28.80;78.70;;;;;;4983280;28;20046;-86
2022/06/15 12:27:04;;;;;;;4.50;3.20;;;28.80;78.10;;;;;;4982887;28;20056;-86
2022/06/15 12:29:55;;;;;;;3.78;2.97;;;28.90;78.70;;;;;;4995317;28;20053;-86
2022/06/15 12:33:02;;;;;;;5.20;2.63;;;29.10;75.70;;;;;;4993585;28;20042;-86
2022/06/15 12:35:54;;;;;;;5.57;3.20;;;29.10;76.00;;;;;;4991039;28;20077;-86
2022/06/15 12:38:56;;;;;;;3.72;2.90;;;29.10;74.90;;;;;;4987848;28;20153;-87
2022/06/15 12:44:39;;;;;;;4.60;3.00;;;29.30;70.40;;;;;;5005821;28;20037;-85
2022/06/15 12:47:13;;;;;;;3.47;3.00;;;29.20;68.50;;;;;;4992863;28;20038;-86
2022/06/15 12:49:58;;;;;;;3.55;2.83;;;29.10;70.80;;;;;;4996163;28;20051;-85
2022/06/15 12:52:39;;;;;;;6.72;2.90;;;29.30;71.00;;;;;;4997208;28;20164;-86
2022/06/15 12:55:19;;;;;;;5.03;2.92;;;29.30;69.50;;;;;;4994925;28;20048;-86
2022/06/15 12:58:16;;;;;;;3.10;2.40;;;29.40;69.40;;;;;;4986583;28;20045;-87
2022/06/15 13:00:54;;;;;;;3.25;2.58;;;29.50;67.80;;;;;;4999476;28;20115;-86
2022/06/15 13:03:38;;;;;;;5.07;2.92;;;29.70;65.70;;;;;;4980743;28;20049;-86
2022/06/15 13:06:25;;;;;;;4.10;2.90;;;29.70;68.00;;;;;;4981515;28;20045;-87
2022/06/15 13:09:20;;;;;;;6.20;3.03;;;29.80;68.50;;;;;;4997172;28;20062;-86
2022/06/15 13:12:01;;;;;;;6.32;2.85;;;29.90;70.20;;;;;;4999215;28;20050;-86
2022/06/15 13:14:55;;;;;;;3.92;3.08;;;29.80;65.30;;;;;;4981280;28;20045;-85
2022/06/15 13:18:06;;;;;;;3.08;2.80;;;29.80;66.70;;;;;;4988204;28;20037;-86
2022/06/15 13:20:50;;;;;;;4.00;2.92;;;30.10;67.70;;;;;;5004185;28;20057;-86
2022/06/15 13:23:31;;;;;;;5.22;2.72;;;30.40;65.70;;;;;;4998168;28;20049;-87
2022/06/15 13:26:38;;;;;;;5.80;2.42;;;30.20;64.00;;;;;;4990195;28;20042;-86
2022/06/15 13:29:10;;;;;;;2.97;2.75;;;30.20;61.10;;;;;;4987828;28;20141;-86
2022/06/15 13:31:49;;;;;;;;;;;30.40;61.40;;;;;;4981560;28;20052;-86
2022/06/15 13:34:26;;;;;;;3.67;2.50;;;30.50;61.80;;;;;;4996570;28;19929;-86
2022/06/15 13:37:12;;;;;;;3.83;2.47;;;30.60;57.60;;;;;;5003902;28;20052;-86
2022/06/15 13:39:42;;;;;;;3.75;2.35;;;30.80;57.80;;;;;;4997693;28;20659;-86
2022/06/15 13:42:44;;;;;;;4.07;2.40;;;31.00;59.10;;;;;;4997692;28;20042;-84
2022/06/15 13:45:22;;;;;;;3.03;2.50;;;31.00;56.90;;;;;;4987873;28;20040;-86
2022/06/15 13:48:07;;;;;;;4.90;2.88;;;31.30;58.40;;;;;;4994810;28;20532;-86
2022/06/15 13:50:47;;;;;;;3.35;2.72;;;31.20;57.90;;;;;;5008495;28;20046;-86
2022/06/15 13:54:02;;;;;;;4.15;2.58;;;31.30;58.50;;;;;;5008858;28;20137;-85
2022/06/15 13:56:59;;;;;;;3.10;2.47;;;31.20;55.60;;;;;;4993758;28;20038;-86
2022/06/15 14:00:03;;;;;;;4.70;2.40;;;31.40;56.00;;;;;;4989399;28;20137;-86
2022/06/15 14:03:02;;;;;;;4.80;2.25;;;31.50;54.80;;;;;;5013156;28;20081;-86
2022/06/15 14:05:49;;;;;;;3.47;2.20;;;31.70;52.90;;;;;;5003273;28;20052;-87